Terminal Aerodrome Forecast
Issued by NWS

Home | Current Version | Previous Version | Graphics & Text | Print | Product List | Glossary On
Versions: 1 2 3 4 5 6 7 8 9 10 11 12 13 14
000
FTUS43 KLSX 151100
TAFSUS
TAF
KSUS 151138Z 1512/1612 30006KT P6SM SKC
     FM151600 33010KT P6SM SCT030
     FM152300 VRB03KT P6SM SKC
     FM160800 14004KT P6SM SKC=

USA.gov is the U.S. government's official web portal to all federal, state and local government web resources and services.